TRA5X EHRD-LEGE
Flight info
| Callsign | TRA5X |
|---|---|
| Flight time | N/A |
| Altitude | 35000 |
| Route | WOODY2A/06 WOODY N872 MEDIL/N0450F350 DCT KOVIN DCT DUCRA DCT RESMI DCT DEKOD DCT DISAK DCT DIRMO DCT VALKU DCT ATSUP DCT MINSO DCT DEGOL DCT PPG A27 KANIG |
| Aircraft | B738/M-SDE2E3FGHIRWXY/LB1 |
Departure
| Time | N/A |
|---|---|
| Airport | Rotterdam The Hague Airport (EHRD) |
Arrival
| Time | 2026-04-27 16:30 |
|---|---|
| Airport | Girona-Costa Brava Airport (LEGE) |
| Time | Latitude | Longitude | Altitude | Speed | Heading |
|---|---|---|---|---|---|
| 2026-04-27 15:58 | 45.03018 | 2.83353 | 37102 ft | 462 kts | 188° |
| 2026-04-27 15:58 | 44.96619 | 2.83438 | 37101 ft | 466 kts | 187° |
| 2026-04-27 15:59 | 44.90126 | 2.83526 | 37101 ft | 468 kts | 187° |
| 2026-04-27 15:59 | 44.83637 | 2.83624 | 37100 ft | 466 kts | 187° |
| 2026-04-27 16:00 | 44.77222 | 2.83721 | 37100 ft | 466 kts | 187° |
| 2026-04-27 16:00 | 44.70748 | 2.83819 | 37101 ft | 465 kts | 187° |
| 2026-04-27 16:01 | 44.64292 | 2.83916 | 37101 ft | 466 kts | 187° |
| 2026-04-27 16:01 | 44.57861 | 2.84013 | 37101 ft | 466 kts | 187° |
| 2026-04-27 16:02 | 44.51395 | 2.84112 | 37101 ft | 466 kts | 187° |
| 2026-04-27 16:02 | 44.44949 | 2.84210 | 37101 ft | 466 kts | 187° |
| 2026-04-27 16:03 | 44.38472 | 2.84309 | 37100 ft | 466 kts | 187° |
| 2026-04-27 16:03 | 44.32045 | 2.84406 | 37101 ft | 466 kts | 187° |
| 2026-04-27 16:04 | 44.25607 | 2.84504 | 37100 ft | 465 kts | 187° |
| 2026-04-27 16:04 | 44.19103 | 2.84600 | 37102 ft | 466 kts | 187° |
| 2026-04-27 16:05 | 44.12674 | 2.84697 | 37101 ft | 466 kts | 187° |
| 2026-04-27 16:05 | 44.06205 | 2.84795 | 37101 ft | 466 kts | 187° |
| 2026-04-27 16:06 | 43.99788 | 2.84891 | 37101 ft | 466 kts | 187° |
| 2026-04-27 16:06 | 43.93303 | 2.84986 | 37094 ft | 466 kts | 187° |
| 2026-04-27 16:07 | 43.86863 | 2.85082 | 37083 ft | 466 kts | 187° |
| 2026-04-27 16:07 | 43.80409 | 2.85179 | 37075 ft | 464 kts | 187° |
| 2026-04-27 16:07 | 43.77218 | 2.85234 | 36989 ft | 453 kts | 187° |
| 2026-04-27 16:08 | 43.74079 | 2.85288 | 36331 ft | 451 kts | 187° |
| 2026-04-27 16:08 | 43.70986 | 2.85332 | 35623 ft | 451 kts | 187° |
| 2026-04-27 16:08 | 43.67853 | 2.85375 | 34868 ft | 451 kts | 187° |
| 2026-04-27 16:08 | 43.64728 | 2.85419 | 34080 ft | 451 kts | 187° |
| 2026-04-27 16:09 | 43.61626 | 2.85463 | 33382 ft | 449 kts | 187° |
| 2026-04-27 16:09 | 43.55441 | 2.85558 | 32241 ft | 440 kts | 187° |
| 2026-04-27 16:09 | 43.52446 | 2.85602 | 31667 ft | 436 kts | 187° |
| 2026-04-27 16:10 | 43.46443 | 2.85690 | 30507 ft | 428 kts | 187° |
| 2026-04-27 16:10 | 43.40590 | 2.85773 | 29364 ft | 421 kts | 187° |
| 2026-04-27 16:11 | 43.37690 | 2.85814 | 28796 ft | 417 kts | 187° |
| 2026-04-27 16:11 | 43.31939 | 2.85896 | 27659 ft | 410 kts | 187° |
| 2026-04-27 16:12 | 43.26317 | 2.85975 | 26547 ft | 404 kts | 187° |
| 2026-04-27 16:12 | 43.23538 | 2.86014 | 25995 ft | 400 kts | 187° |
| 2026-04-27 16:12 | 43.18039 | 2.86092 | 24895 ft | 394 kts | 187° |
| 2026-04-27 16:13 | 43.15319 | 2.86131 | 24349 ft | 391 kts | 187° |
| 2026-04-27 16:13 | 43.09956 | 2.86206 | 23270 ft | 385 kts | 186° |
| 2026-04-27 16:13 | 43.07285 | 2.86244 | 22727 ft | 382 kts | 186° |
| 2026-04-27 16:14 | 43.02023 | 2.86319 | 21657 ft | 377 kts | 186° |
| 2026-04-27 16:14 | 42.96843 | 2.86391 | 20599 ft | 371 kts | 185° |
| 2026-04-27 16:15 | 42.91773 | 2.86465 | 19558 ft | 365 kts | 184° |
| 2026-04-27 16:15 | 42.86745 | 2.86539 | 18529 ft | 359 kts | 182° |
| 2026-04-27 16:16 | 42.81821 | 2.86615 | 17509 ft | 353 kts | 182° |
| 2026-04-27 16:16 | 42.76960 | 2.86759 | 16501 ft | 349 kts | 179° |
| 2026-04-27 16:17 | 42.72247 | 2.87986 | 15507 ft | 347 kts | 166° |
| 2026-04-27 16:17 | 42.67686 | 2.89915 | 14498 ft | 342 kts | 165° |
| 2026-04-27 16:18 | 42.63180 | 2.91831 | 13514 ft | 337 kts | 165° |
| 2026-04-27 16:18 | 42.58759 | 2.93721 | 12536 ft | 333 kts | 165° |
| 2026-04-27 16:19 | 42.56576 | 2.94655 | 12051 ft | 331 kts | 165° |
| 2026-04-27 16:19 | 42.54377 | 2.95597 | 11561 ft | 329 kts | 165° |
| 2026-04-27 16:20 | 42.47908 | 2.97971 | 10357 ft | 309 kts | 183° |
| 2026-04-27 16:20 | 42.45869 | 2.97496 | 10249 ft | 291 kts | 200° |
| 2026-04-27 16:20 | 42.42139 | 2.95738 | 9573 ft | 282 kts | 201° |
| 2026-04-27 16:21 | 42.40282 | 2.94862 | 9214 ft | 279 kts | 200° |
| 2026-04-27 16:21 | 42.34783 | 2.92504 | 8165 ft | 280 kts | 198° |
| 2026-04-27 16:22 | 42.32922 | 2.91758 | 7809 ft | 279 kts | 197° |
| 2026-04-27 16:22 | 42.29220 | 2.90327 | 7104 ft | 275 kts | 197° |
| 2026-04-27 16:22 | 42.27380 | 2.89628 | 6689 ft | 276 kts | 197° |
| 2026-04-27 16:23 | 42.25544 | 2.88942 | 6304 ft | 276 kts | 197° |
| 2026-04-27 16:23 | 42.21870 | 2.87586 | 5594 ft | 272 kts | 196° |
| 2026-04-27 16:23 | 42.20056 | 2.86922 | 5271 ft | 270 kts | 196° |
| 2026-04-27 16:24 | 42.18255 | 2.86264 | 4952 ft | 267 kts | 196° |
| 2026-04-27 16:24 | 42.14741 | 2.84992 | 4511 ft | 253 kts | 195° |
| 2026-04-27 16:25 | 42.11489 | 2.83785 | 4233 ft | 237 kts | 196° |
| 2026-04-27 16:25 | 42.08376 | 2.82603 | 3620 ft | 231 kts | 196° |
| 2026-04-27 16:26 | 42.05406 | 2.81501 | 3104 ft | 208 kts | 196° |
| 2026-04-27 16:26 | 42.02728 | 2.80586 | 2534 ft | 192 kts | 194° |
| 2026-04-27 16:27 | 42.00252 | 2.79728 | 2260 ft | 187 kts | 197° |
| 2026-04-27 16:27 | 41.96719 | 2.78529 | 1522 ft | 170 kts | 194° |
| 2026-04-27 16:28 | 41.94525 | 2.77705 | 1163 ft | 162 kts | 197° |
| 2026-04-27 16:28 | 41.92366 | 2.76929 | 724 ft | 160 kts | 196° |
| 2026-04-27 16:29 | 41.89756 | 2.75931 | 417 ft | 60 kts | 195° |
| 2026-04-27 16:30 | 41.89535 | 2.75973 | 410 ft | 8 kts | 60° |
| 2026-04-27 16:30 | 41.89597 | 2.76087 | 416 ft | 13 kts | 32° |
| 2026-04-27 16:31 | 41.89906 | 2.76255 | 426 ft | 5 kts | 106° |
| 2026-04-27 16:31 | 41.89874 | 2.76382 | 427 ft | 8 kts | 116° |
| 2026-04-27 16:32 | 41.89851 | 2.76473 | 426 ft | 0 kts | 105° |
| 2026-04-27 16:32 | 41.89851 | 2.76476 | 426 ft | 0 kts | 105° |